sensor_id;sensor_type;location;lat;lon;timestamp;pressure;altitude;pressure_sealevel;temperature;humidity
5522;BME280;2783;48.730;8.006;2023-04-06T00:00:48;100384.28;;;4.16;82.35
5522;BME280;2783;48.730;8.006;2023-04-06T00:03:13;100381.63;;;4.20;81.83
5522;BME280;2783;48.730;8.006;2023-04-06T00:05:38;100381.66;;;4.26;80.64
5522;BME280;2783;48.730;8.006;2023-04-06T00:08:03;100379.00;;;4.29;80.28
5522;BME280;2783;48.730;8.006;2023-04-06T00:10:29;100379.00;;;4.31;80.10
5522;BME280;2783;48.730;8.006;2023-04-06T00:12:54;100378.09;;;4.32;79.76
5522;BME280;2783;48.730;8.006;2023-04-06T00:15:21;100369.38;;;4.28;78.51
5522;BME280;2783;48.730;8.006;2023-04-06T00:17:46;100378.13;;;4.30;77.16
5522;BME280;2783;48.730;8.006;2023-04-06T00:20:12;100373.72;;;4.41;77.03
5522;BME280;2783;48.730;8.006;2023-04-06T00:22:37;100370.19;;;4.50;76.50
5522;BME280;2783;48.730;8.006;2023-04-06T00:25:02;100368.41;;;4.58;76.14
5522;BME280;2783;48.730;8.006;2023-04-06T00:27:28;100381.59;;;4.56;76.31
5522;BME280;2783;48.730;8.006;2023-04-06T00:29:53;100367.53;;;4.48;76.05
5522;BME280;2783;48.730;8.006;2023-04-06T00:32:18;100376.38;;;4.38;76.18
5522;BME280;2783;48.730;8.006;2023-04-06T00:34:43;100380.78;;;4.24;76.55
5522;BME280;2783;48.730;8.006;2023-04-06T00:37:10;100383.41;;;4.11;77.08
5522;BME280;2783;48.730;8.006;2023-04-06T00:39:36;100381.66;;;3.99;77.67
5522;BME280;2783;48.730;8.006;2023-04-06T00:42:01;100386.06;;;3.92;78.41
5522;BME280;2783;48.730;8.006;2023-04-06T00:44:32;100375.56;;;3.83;79.97
5522;BME280;2783;48.730;8.006;2023-04-06T00:46:57;100375.56;;;3.83;79.71
5522;BME280;2783;48.730;8.006;2023-04-06T00:49:23;100378.16;;;3.79;80.76
5522;BME280;2783;48.730;8.006;2023-04-06T00:51:48;100377.28;;;3.72;81.06
5522;BME280;2783;48.730;8.006;2023-04-06T00:54:13;100367.66;;;3.67;81.26
5522;BME280;2783;48.730;8.006;2023-04-06T00:56:40;100367.63;;;3.58;82.55
5522;BME280;2783;48.730;8.006;2023-04-06T00:59:06;100371.16;;;3.54;82.24
5522;BME280;2783;48.730;8.006;2023-04-06T01:01:31;100363.25;;;3.52;82.92
5522;BME280;2783;48.730;8.006;2023-04-06T01:03:57;100366.75;;;3.56;82.95
5522;BME280;2783;48.730;8.006;2023-04-06T01:06:22;100365.88;;;3.57;82.98
5522;BME280;2783;48.730;8.006;2023-04-06T01:08:48;100355.34;;;3.63;83.24
5522;BME280;2783;48.730;8.006;2023-04-06T01:11:13;100351.88;;;3.67;83.50
5522;BME280;2783;48.730;8.006;2023-04-06T01:13:38;100358.00;;;3.69;83.54
5522;BME280;2783;48.730;8.006;2023-04-06T01:16:03;100352.75;;;3.73;83.31
5522;BME280;2783;48.730;8.006;2023-04-06T01:18:29;100355.38;;;3.70;83.21
5522;BME280;2783;48.730;8.006;2023-04-06T01:20:55;100348.34;;;3.68;82.89
5522;BME280;2783;48.730;8.006;2023-04-06T01:23:20;100351.88;;;3.65;82.95
5522;BME280;2783;48.730;8.006;2023-04-06T01:25:45;100343.09;;;3.65;82.89
5522;BME280;2783;48.730;8.006;2023-04-06T01:28:11;100347.47;;;3.58;83.30
5522;BME280;2783;48.730;8.006;2023-04-06T01:30:36;100344.84;;;3.51;83.35
5522;BME280;2783;48.730;8.006;2023-04-06T01:33:01;100342.19;;;3.43;83.89
5522;BME280;2783;48.730;8.006;2023-04-06T01:35:27;100345.72;;;3.41;84.65
5522;BME280;2783;48.730;8.006;2023-04-06T01:37:52;100348.31;;;3.35;84.56
5522;BME280;2783;48.730;8.006;2023-04-06T01:40:18;100348.31;;;3.26;84.77
5522;BME280;2783;48.730;8.006;2023-04-06T01:42:43;100340.41;;;3.18;84.88
5522;BME280;2783;48.730;8.006;2023-04-06T01:45:09;100340.41;;;3.14;85.21
5522;BME280;2783;48.730;8.006;2023-04-06T01:47:34;100344.75;;;3.12;85.78
5522;BME280;2783;48.730;8.006;2023-04-06T01:49:59;100339.50;;;3.12;85.96
5522;BME280;2783;48.730;8.006;2023-04-06T01:52:25;100343.91;;;3.10;86.85
5522;BME280;2783;48.730;8.006;2023-04-06T01:54:50;100341.25;;;3.07;86.10
5522;BME280;2783;48.730;8.006;2023-04-06T01:57:15;100336.00;;;3.02;86.73
5522;BME280;2783;48.730;8.006;2023-04-06T01:59:41;100342.97;;;2.96;86.43
5522;BME280;2783;48.730;8.006;2023-04-06T02:02:06;100344.72;;;2.94;87.29
5522;BME280;2783;48.730;8.006;2023-04-06T02:04:31;100344.72;;;2.91;87.26
5522;BME280;2783;48.730;8.006;2023-04-06T02:06:57;100341.19;;;2.89;87.38
5522;BME280;2783;48.730;8.006;2023-04-06T02:09:22;100341.19;;;2.86;87.68
5522;BME280;2783;48.730;8.006;2023-04-06T02:11:47;100341.19;;;2.81;87.66
5522;BME280;2783;48.730;8.006;2023-04-06T02:14:12;100335.03;;;2.79;88.40
5522;BME280;2783;48.730;8.006;2023-04-06T02:16:38;100335.03;;;2.81;87.78
5522;BME280;2783;48.730;8.006;2023-04-06T02:19:03;100285.94;;;2.55;87.64
5522;BME280;2783;48.730;8.006;2023-04-06T02:21:28;100338.56;;;2.81;88.43
5522;BME280;2783;48.730;8.006;2023-04-06T02:23:54;100339.41;;;2.79;88.01
5522;BME280;2783;48.730;8.006;2023-04-06T02:26:19;100340.28;;;2.78;88.30
5522;BME280;2783;48.730;8.006;2023-04-06T02:28:45;100341.13;;;2.73;88.18
5522;BME280;2783;48.730;8.006;2023-04-06T02:31:10;100339.38;;;2.71;88.02
5522;BME280;2783;48.730;8.006;2023-04-06T02:33:36;100341.13;;;2.67;89.13
5522;BME280;2783;48.730;8.006;2023-04-06T02:36:01;100328.00;;;2.69;89.13
5522;BME280;2783;48.730;8.006;2023-04-06T02:38:26;100338.50;;;2.66;89.36
5522;BME280;2783;48.730;8.006;2023-04-06T02:40:51;100346.38;;;2.61;89.22
5522;BME280;2783;48.730;8.006;2023-04-06T02:43:17;100341.94;;;2.57;88.75
5522;BME280;2783;48.730;8.006;2023-04-06T02:45:42;100341.97;;;2.62;88.80
5522;BME280;2783;48.730;8.006;2023-04-06T02:48:07;100329.72;;;2.58;89.01
5522;BME280;2783;48.730;8.006;2023-04-06T02:50:33;100327.94;;;2.54;89.90
5522;BME280;2783;48.730;8.006;2023-04-06T02:53:16;100337.53;;;2.47;89.96
5522;BME280;2783;48.730;8.006;2023-04-06T02:55:42;100333.16;;;2.45;89.06
5522;BME280;2783;48.730;8.006;2023-04-06T02:58:07;100334.03;;;2.45;89.20
5522;BME280;2783;48.730;8.006;2023-04-06T03:00:32;100328.78;;;2.45;89.77
5522;BME280;2783;48.730;8.006;2023-04-06T03:02:57;100327.91;;;2.43;89.76
5522;BME280;2783;48.730;8.006;2023-04-06T03:05:23;100334.00;;;2.42;90.32
5522;BME280;2783;48.730;8.006;2023-04-06T03:07:48;100334.00;;;2.42;90.84
5522;BME280;2783;48.730;8.006;2023-04-06T03:10:13;100328.75;;;2.42;90.64
5522;BME280;2783;48.730;8.006;2023-04-06T03:12:38;100325.28;;;2.40;90.80
5522;BME280;2783;48.730;8.006;2023-04-06T03:15:04;100328.72;;;2.33;90.59
5522;BME280;2783;48.730;8.006;2023-04-06T03:17:29;100326.94;;;2.32;91.15
5522;BME280;2783;48.730;8.006;2023-04-06T03:19:54;100322.56;;;2.28;91.27
5522;BME280;2783;48.730;8.006;2023-04-06T03:22:20;100322.56;;;2.24;91.58
5522;BME280;2783;48.730;8.006;2023-04-06T03:24:45;100320.78;;;2.23;91.28
5522;BME280;2783;48.730;8.006;2023-04-06T03:27:11;100323.41;;;2.24;91.05
5522;BME280;2783;48.730;8.006;2023-04-06T03:29:36;100326.03;;;2.26;90.80
5522;BME280;2783;48.730;8.006;2023-04-06T03:32:01;100315.53;;;2.26;91.46
5522;BME280;2783;48.730;8.006;2023-04-06T03:34:26;100328.66;;;2.26;91.31
5522;BME280;2783;48.730;8.006;2023-04-06T03:36:52;100321.69;;;2.29;90.81
5522;BME280;2783;48.730;8.006;2023-04-06T03:39:17;100324.38;;;2.34;91.50
5522;BME280;2783;48.730;8.006;2023-04-06T03:41:42;100318.22;;;2.30;92.11
5522;BME280;2783;48.730;8.006;2023-04-06T03:44:09;100323.41;;;2.26;92.13
5522;BME280;2783;48.730;8.006;2023-04-06T03:46:34;100328.66;;;2.23;91.63
5522;BME280;2783;48.730;8.006;2023-04-06T03:49:00;100327.75;;;2.21;92.07
5522;BME280;2783;48.730;8.006;2023-04-06T03:51:25;100343.47;;;2.16;92.02
5522;BME280;2783;48.730;8.006;2023-04-06T03:53:51;100341.75;;;2.15;92.06
5522;BME280;2783;48.730;8.006;2023-04-06T03:56:16;100346.06;;;2.10;91.42
5522;BME280;2783;48.730;8.006;2023-04-06T03:58:41;100349.56;;;2.09;91.54
5522;BME280;2783;48.730;8.006;2023-04-06T04:01:07;100352.16;;;2.06;92.74
5522;BME280;2783;48.730;8.006;2023-04-06T04:03:32;100360.00;;;2.03;91.91
5522;BME280;2783;48.730;8.006;2023-04-06T04:05:57;100358.25;;;1.99;92.47
5522;BME280;2783;48.730;8.006;2023-04-06T04:08:23;100362.59;;;1.97;92.00
5522;BME280;2783;48.730;8.006;2023-04-06T04:10:48;100361.72;;;1.95;92.69
5522;BME280;2783;48.730;8.006;2023-04-06T04:13:13;100367.84;;;1.94;92.84
5522;BME280;2783;48.730;8.006;2023-04-06T04:15:39;100364.34;;;1.95;92.74
5522;BME280;2783;48.730;8.006;2023-04-06T04:18:04;100367.84;;;1.96;91.99
5522;BME280;2783;48.730;8.006;2023-04-06T04:20:29;100373.91;;;1.90;92.12
5522;BME280;2783;48.730;8.006;2023-04-06T04:22:54;100373.88;;;1.86;92.46
5522;BME280;2783;48.730;8.006;2023-04-06T04:25:20;100375.63;;;1.85;92.10
5522;BME280;2783;48.730;8.006;2023-04-06T04:27:45;100373.88;;;1.84;92.96
5522;BME280;2783;48.730;8.006;2023-04-06T04:30:10;100375.59;;;1.82;92.81
5522;BME280;2783;48.730;8.006;2023-04-06T04:32:36;100376.47;;;1.81;92.33
5522;BME280;2783;48.730;8.006;2023-04-06T04:35:01;100379.03;;;1.78;92.67
5522;BME280;2783;48.730;8.006;2023-04-06T04:37:26;100376.44;;;1.78;93.24
5522;BME280;2783;48.730;8.006;2023-04-06T04:39:52;100382.53;;;1.74;93.21
5522;BME280;2783;48.730;8.006;2023-04-06T04:42:17;100372.84;;;1.69;92.15
5522;BME280;2783;48.730;8.006;2023-04-06T04:44:42;100373.72;;;1.65;93.16
5522;BME280;2783;48.730;8.006;2023-04-06T04:47:07;100379.81;;;1.67;93.15
5522;BME280;2783;48.730;8.006;2023-04-06T04:49:32;100377.22;;;1.68;93.22
5522;BME280;2783;48.730;8.006;2023-04-06T04:51:58;100383.34;;;1.69;93.30
5522;BME280;2783;48.730;8.006;2023-04-06T04:54:23;100377.22;;;1.68;93.30
5522;BME280;2783;48.730;8.006;2023-04-06T04:56:48;100393.88;;;1.73;93.15
5522;BME280;2783;48.730;8.006;2023-04-06T04:59:13;100394.75;;;1.75;93.13
5522;BME280;2783;48.730;8.006;2023-04-06T05:01:39;100392.16;;;1.77;94.04
5522;BME280;2783;48.730;8.006;2023-04-06T05:04:04;100398.28;;;1.77;94.29
5522;BME280;2783;48.730;8.006;2023-04-06T05:06:30;100398.31;;;1.83;94.24
5522;BME280;2783;48.730;8.006;2023-04-06T05:08:55;100401.00;;;1.88;94.10
5522;BME280;2783;48.730;8.006;2023-04-06T05:11:21;100403.66;;;1.92;94.29
5522;BME280;2783;48.730;8.006;2023-04-06T05:13:46;100408.97;;;2.01;93.12
5522;BME280;2783;48.730;8.006;2023-04-06T05:16:11;100407.25;;;2.06;93.61
5522;BME280;2783;48.730;8.006;2023-04-06T05:18:37;100405.53;;;2.11;93.31
5522;BME280;2783;48.730;8.006;2023-04-06T05:21:02;100401.22;;;2.19;93.64
5522;BME280;2783;48.730;8.006;2023-04-06T05:23:27;100399.53;;;2.27;93.43
5522;BME280;2783;48.730;8.006;2023-04-06T05:25:53;100392.59;;;2.35;93.05
5522;BME280;2783;48.730;8.006;2023-04-06T05:28:18;100399.69;;;2.47;92.45
5522;BME280;2783;48.730;8.006;2023-04-06T05:30:44;100399.72;;;2.59;92.55
5522;BME280;2783;48.730;8.006;2023-04-06T05:33:09;100392.81;;;2.73;93.23
5522;BME280;2783;48.730;8.006;2023-04-06T05:35:35;100347.28;;;2.69;94.41
5522;BME280;2783;48.730;8.006;2023-04-06T05:38:00;100396.56;;;3.53;96.68
5522;BME280;2783;48.730;8.006;2023-04-06T05:40:25;100390.41;;;4.37;94.61
5522;BME280;2783;48.730;8.006;2023-04-06T05:42:51;100391.00;;;5.22;86.96
5522;BME280;2783;48.730;8.006;2023-04-06T05:45:16;100384.66;;;5.52;82.32
5522;BME280;2783;48.730;8.006;2023-04-06T05:47:43;100388.25;;;5.42;79.99
5522;BME280;2783;48.730;8.006;2023-04-06T05:50:09;100388.25;;;5.35;78.85
5522;BME280;2783;48.730;8.006;2023-04-06T05:52:35;100394.44;;;5.34;77.78
5522;BME280;2783;48.730;8.006;2023-04-06T05:55:00;100396.22;;;5.28;77.48
5522;BME280;2783;48.730;8.006;2023-04-06T05:57:25;100391.78;;;5.34;77.18
5522;BME280;2783;48.730;8.006;2023-04-06T05:59:51;100394.41;;;5.37;75.51
5522;BME280;2783;48.730;8.006;2023-04-06T06:02:16;100395.97;;;5.66;76.46
5522;BME280;2783;48.730;8.006;2023-04-06T06:04:41;100400.25;;;5.82;72.63
5522;BME280;2783;48.730;8.006;2023-04-06T06:07:06;100397.25;;;6.30;69.13
5522;BME280;2783;48.730;8.006;2023-04-06T06:09:32;100387.22;;;7.33;68.13
5522;BME280;2783;48.730;8.006;2023-04-06T06:11:57;100398.72;;;8.45;63.01
5522;BME280;2783;48.730;8.006;2023-04-06T06:14:22;100397.84;;;9.31;59.14
5522;BME280;2783;48.730;8.006;2023-04-06T06:16:47;100394.31;;;10.43;55.81
5522;BME280;2783;48.730;8.006;2023-04-06T06:19:13;100390.94;;;11.30;52.01
5522;BME280;2783;48.730;8.006;2023-04-06T06:21:38;100387.44;;;12.14;49.15
5522;BME280;2783;48.730;8.006;2023-04-06T06:24:04;100396.75;;;12.29;47.46
5522;BME280;2783;48.730;8.006;2023-04-06T06:26:29;100400.47;;;11.97;47.58
5522;BME280;2783;48.730;8.006;2023-04-06T06:28:54;100402.16;;;12.26;46.95
5522;BME280;2783;48.730;8.006;2023-04-06T06:31:20;100396.13;;;12.96;45.81
5522;BME280;2783;48.730;8.006;2023-04-06T06:33:47;100402.75;;;13.34;43.91
5522;BME280;2783;48.730;8.006;2023-04-06T06:36:15;100396.34;;;13.61;43.66
5522;BME280;2783;48.730;8.006;2023-04-06T06:38:40;100394.59;;;14.04;42.50
5522;BME280;2783;48.730;8.006;2023-04-06T06:41:05;100393.44;;;14.33;41.47
5522;BME280;2783;48.730;8.006;2023-04-06T06:43:31;100395.22;;;14.54;40.88
5522;BME280;2783;48.730;8.006;2023-04-06T06:45:56;100401.66;;;14.90;40.57
5522;BME280;2783;48.730;8.006;2023-04-06T06:48:23;100400.66;;;15.51;39.40
5522;BME280;2783;48.730;8.006;2023-04-06T06:50:48;100394.22;;;16.10;39.43
5522;BME280;2783;48.730;8.006;2023-04-06T06:53:14;100390.66;;;16.45;37.84
5522;BME280;2783;48.730;8.006;2023-04-06T06:55:42;100393.72;;;16.90;37.58
5522;BME280;2783;48.730;8.006;2023-04-06T06:58:09;100390.09;;;17.24;37.10
5522;BME280;2783;48.730;8.006;2023-04-06T07:00:34;100400.81;;;17.08;36.69
5522;BME280;2783;48.730;8.006;2023-04-06T07:03:00;100395.75;;;16.51;37.38
5522;BME280;2783;48.730;8.006;2023-04-06T07:05:25;100396.16;;;16.25;37.39
5522;BME280;2783;48.730;8.006;2023-04-06T07:07:51;100392.91;;;16.18;37.66
5522;BME280;2783;48.730;8.006;2023-04-06T07:10:17;100394.91;;;16.32;38.22
5522;BME280;2783;48.730;8.006;2023-04-06T07:12:42;100389.06;;;16.59;37.52
5522;BME280;2783;48.730;8.006;2023-04-06T07:15:07;100397.06;;;15.88;37.69
5522;BME280;2783;48.730;8.006;2023-04-06T07:17:33;100401.06;;;15.42;38.31
5522;BME280;2783;48.730;8.006;2023-04-06T07:19:58;100401.25;;;14.59;39.41
5522;BME280;2783;48.730;8.006;2023-04-06T07:22:23;100401.84;;;14.66;39.51
5522;BME280;2783;48.730;8.006;2023-04-06T07:24:49;100397.19;;;14.91;39.98
5522;BME280;2783;48.730;8.006;2023-04-06T07:27:14;100393.75;;;14.67;39.63
5522;BME280;2783;48.730;8.006;2023-04-06T07:29:41;100397.63;;;14.60;40.62
5522;BME280;2783;48.730;8.006;2023-04-06T07:32:06;100392.81;;;14.88;39.29
5522;BME280;2783;48.730;8.006;2023-04-06T07:34:31;100397.09;;;14.72;39.61
5522;BME280;2783;48.730;8.006;2023-04-06T07:36:57;100391.84;;;14.49;40.24
5522;BME280;2783;48.730;8.006;2023-04-06T07:39:22;100389.19;;;14.49;40.52
5522;BME280;2783;48.730;8.006;2023-04-06T07:41:48;100400.78;;;14.49;40.69
5522;BME280;2783;48.730;8.006;2023-04-06T07:44:13;100399.78;;;14.92;40.93
5522;BME280;2783;48.730;8.006;2023-04-06T07:46:38;100399.34;;;15.01;40.29
5522;BME280;2783;48.730;8.006;2023-04-06T07:49:04;100397.94;;;15.13;40.30
5522;BME280;2783;48.730;8.006;2023-04-06T07:51:29;100395.34;;;15.11;39.97
5522;BME280;2783;48.730;8.006;2023-04-06T07:53:55;100393.69;;;15.27;39.99
5522;BME280;2783;48.730;8.006;2023-04-06T07:56:21;100394.72;;;15.45;39.05
5522;BME280;2783;48.730;8.006;2023-04-06T07:58:46;100399.03;;;15.47;38.71
5522;BME280;2783;48.730;8.006;2023-04-06T08:01:11;100395.56;;;15.45;37.97
5522;BME280;2783;48.730;8.006;2023-04-06T08:03:37;100394.41;;;14.72;39.27
5522;BME280;2783;48.730;8.006;2023-04-06T08:06:02;100395.75;;;14.62;39.41
5522;BME280;2783;48.730;8.006;2023-04-06T08:08:28;100398.97;;;14.70;39.74
5522;BME280;2783;48.730;8.006;2023-04-06T08:10:53;100396.50;;;15.24;38.95
5522;BME280;2783;48.730;8.006;2023-04-06T08:13:18;100392.63;;;15.31;38.51
5522;BME280;2783;48.730;8.006;2023-04-06T08:15:44;100395.00;;;15.57;37.97
5522;BME280;2783;48.730;8.006;2023-04-06T08:18:09;100389.41;;;15.43;39.29
5522;BME280;2783;48.730;8.006;2023-04-06T08:20:35;100383.28;;;15.60;39.23
5522;BME280;2783;48.730;8.006;2023-04-06T08:23:00;100384.50;;;16.26;38.71
5522;BME280;2783;48.730;8.006;2023-04-06T08:25:26;100382.00;;;16.74;38.47
5522;BME280;2783;48.730;8.006;2023-04-06T08:27:51;100379.94;;;17.13;36.91
5522;BME280;2783;48.730;8.006;2023-04-06T08:30:16;100385.97;;;17.34;37.24
5522;BME280;2783;48.730;8.006;2023-04-06T08:32:43;100385.66;;;17.72;37.22
5522;BME280;2783;48.730;8.006;2023-04-06T08:35:09;100376.22;;;18.26;36.52
5522;BME280;2783;48.730;8.006;2023-04-06T08:37:34;100380.00;;;18.08;35.37
5522;BME280;2783;48.730;8.006;2023-04-06T08:40:00;100379.22;;;17.90;36.19
5522;BME280;2783;48.730;8.006;2023-04-06T08:42:25;100378.00;;;18.11;36.36
5522;BME280;2783;48.730;8.006;2023-04-06T08:44:51;100378.16;;;18.40;35.18
5522;BME280;2783;48.730;8.006;2023-04-06T08:47:17;100368.22;;;18.56;35.64
5522;BME280;2783;48.730;8.006;2023-04-06T08:49:42;100375.97;;;18.76;35.23
5522;BME280;2783;48.730;8.006;2023-04-06T08:52:09;100379.84;;;19.00;35.08
5522;BME280;2783;48.730;8.006;2023-04-06T08:54:35;100379.59;;;19.04;34.08
5522;BME280;2783;48.730;8.006;2023-04-06T08:57:00;100376.16;;;18.73;34.96
5522;BME280;2783;48.730;8.006;2023-04-06T08:59:26;100388.13;;;18.83;35.88
5522;BME280;2783;48.730;8.006;2023-04-06T09:01:52;100379.03;;;18.70;34.01
5522;BME280;2783;48.730;8.006;2023-04-06T09:04:18;100385.78;;;18.16;35.41
5522;BME280;2783;48.730;8.006;2023-04-06T09:06:43;100382.06;;;18.18;35.72
5522;BME280;2783;48.730;8.006;2023-04-06T09:09:08;100381.97;;;18.95;35.21
5522;BME280;2783;48.730;8.006;2023-04-06T09:11:49;100383.06;;;19.06;33.65
5522;BME280;2783;48.730;8.006;2023-04-06T09:14:15;100374.66;;;19.40;34.52
5522;BME280;2783;48.730;8.006;2023-04-06T09:16:42;100370.56;;;19.76;33.98
5522;BME280;2783;48.730;8.006;2023-04-06T09:19:08;100373.75;;;19.68;34.34
5522;BME280;2783;48.730;8.006;2023-04-06T09:21:33;100379.94;;;19.56;32.94
5522;BME280;2783;48.730;8.006;2023-04-06T09:23:59;100374.13;;;19.76;32.82
5522;BME280;2783;48.730;8.006;2023-04-06T09:26:25;100371.22;;;19.79;32.90
5522;BME280;2783;48.730;8.006;2023-04-06T09:28:53;100366.09;;;19.89;33.50
5522;BME280;2783;48.730;8.006;2023-04-06T09:31:23;100356.78;;;20.47;33.22
5522;BME280;2783;48.730;8.006;2023-04-06T09:33:50;100371.44;;;20.82;31.51
5522;BME280;2783;48.730;8.006;2023-04-06T09:36:15;100365.44;;;20.52;30.66
5522;BME280;2783;48.730;8.006;2023-04-06T09:38:59;100365.91;;;20.84;30.64
5522;BME280;2783;48.730;8.006;2023-04-06T09:41:25;100360.91;;;21.05;31.03
5522;BME280;2783;48.730;8.006;2023-04-06T09:43:52;100368.66;;;20.97;31.66
5522;BME280;2783;48.730;8.006;2023-04-06T09:46:18;100362.47;;;20.94;30.88
5522;BME280;2783;48.730;8.006;2023-04-06T09:48:46;100367.28;;;20.64;32.04
5522;BME280;2783;48.730;8.006;2023-04-06T09:51:11;100363.31;;;20.70;31.69
5522;BME280;2783;48.730;8.006;2023-04-06T09:53:39;100363.63;;;20.65;31.85
5522;BME280;2783;48.730;8.006;2023-04-06T09:56:06;100360.38;;;20.60;30.87
5522;BME280;2783;48.730;8.006;2023-04-06T09:58:39;100362.28;;;20.98;29.69
5522;BME280;2783;48.730;8.006;2023-04-06T10:01:11;100358.63;;;21.11;30.29
5522;BME280;2783;48.730;8.006;2023-04-06T10:06:04;100359.19;;;21.16;29.96
5522;BME280;2783;48.730;8.006;2023-04-06T10:08:30;100362.59;;;20.80;30.84
5522;BME280;2783;48.730;8.006;2023-04-06T10:10:57;100352.56;;;21.08;30.02
5522;BME280;2783;48.730;8.006;2023-04-06T10:13:23;100347.06;;;21.22;31.00
5522;BME280;2783;48.730;8.006;2023-04-06T10:15:49;100355.09;;;22.21;29.54
5522;BME280;2783;48.730;8.006;2023-04-06T10:18:15;100344.34;;;21.95;27.13
5522;BME280;2783;48.730;8.006;2023-04-06T10:25:58;100346.63;;;21.03;28.15
5522;BME280;2783;48.730;8.006;2023-04-06T10:28:23;100338.59;;;21.39;28.48
5522;BME280;2783;48.730;8.006;2023-04-06T10:30:49;100352.41;;;20.84;28.51
5522;BME280;2783;48.730;8.006;2023-04-06T10:33:21;100342.00;;;20.78;29.89
5522;BME280;2783;48.730;8.006;2023-04-06T10:35:46;100344.56;;;20.54;29.60
5522;BME280;2783;48.730;8.006;2023-04-06T10:38:12;100345.59;;;20.78;28.17
5522;BME280;2783;48.730;8.006;2023-04-06T10:40:40;100346.91;;;20.85;28.45
5522;BME280;2783;48.730;8.006;2023-04-06T10:43:12;100348.44;;;20.50;27.49
5522;BME280;2783;48.730;8.006;2023-04-06T10:45:37;100340.88;;;20.02;30.29
5522;BME280;2783;48.730;8.006;2023-04-06T10:49:09;100338.31;;;20.66;31.21
5522;BME280;2783;48.730;8.006;2023-04-06T10:50:57;100338.06;;;20.44;27.48
5522;BME280;2783;48.730;8.006;2023-04-06T10:53:24;100333.56;;;20.82;30.21
5522;BME280;2783;48.730;8.006;2023-04-06T10:55:50;100332.31;;;21.01;26.83
5522;BME280;2783;48.730;8.006;2023-04-06T10:58:15;100333.84;;;21.05;26.62
5522;BME280;2783;48.730;8.006;2023-04-06T11:00:47;100327.03;;;21.12;25.10
5522;BME280;2783;48.730;8.006;2023-04-06T11:03:13;100325.59;;;21.44;26.62
5522;BME280;2783;48.730;8.006;2023-04-06T11:05:38;100322.16;;;21.29;25.19
5522;BME280;2783;48.730;8.006;2023-04-06T11:08:04;100326.28;;;21.35;25.45
5522;BME280;2783;48.730;8.006;2023-04-06T11:10:29;100321.00;;;21.69;24.29
5522;BME280;2783;48.730;8.006;2023-04-06T11:12:55;100310.72;;;22.10;24.09
5522;BME280;2783;48.730;8.006;2023-04-06T11:15:21;100313.38;;;22.34;24.11
5522;BME280;2783;48.730;8.006;2023-04-06T11:17:46;100305.84;;;23.18;24.58
5522;BME280;2783;48.730;8.006;2023-04-06T11:20:11;100301.09;;;22.65;23.70
5522;BME280;2783;48.730;8.006;2023-04-06T11:22:47;100305.53;;;22.42;24.24
5522;BME280;2783;48.730;8.006;2023-04-06T11:25:12;100307.59;;;22.62;23.19
5522;BME280;2783;48.730;8.006;2023-04-06T11:27:38;100299.53;;;22.50;22.81
5522;BME280;2783;48.730;8.006;2023-04-06T11:30:04;100282.00;;;22.66;23.86
5522;BME280;2783;48.730;8.006;2023-04-06T11:32:29;100284.78;;;23.55;24.39
5522;BME280;2783;48.730;8.006;2023-04-06T11:34:55;100281.81;;;23.69;24.31
5522;BME280;2783;48.730;8.006;2023-04-06T11:37:25;100285.72;;;23.76;22.18
5522;BME280;2783;48.730;8.006;2023-04-06T11:39:51;100284.41;;;23.70;22.57
5522;BME280;2783;48.730;8.006;2023-04-06T11:42:35;100282.69;;;24.23;22.50
5522;BME280;2783;48.730;8.006;2023-04-06T11:45:00;100288.06;;;24.34;24.57
5522;BME280;2783;48.730;8.006;2023-04-06T11:47:29;100282.31;;;23.18;22.49
5522;BME280;2783;48.730;8.006;2023-04-06T11:49:55;100278.06;;;23.81;21.97
5522;BME280;2783;48.730;8.006;2023-04-06T11:52:24;100272.97;;;23.56;24.60
5522;BME280;2783;48.730;8.006;2023-04-06T11:54:51;100264.22;;;23.95;23.69
5522;BME280;2783;48.730;8.006;2023-04-06T11:57:16;100264.31;;;23.28;24.46
5522;BME280;2783;48.730;8.006;2023-04-06T11:59:42;100270.47;;;23.53;24.04
5522;BME280;2783;48.730;8.006;2023-04-06T12:02:08;100266.03;;;23.29;24.82
5522;BME280;2783;48.730;8.006;2023-04-06T12:04:33;100260.94;;;23.69;25.50
5522;BME280;2783;48.730;8.006;2023-04-06T12:06:59;100261.53;;;23.84;26.36
5522;BME280;2783;48.730;8.006;2023-04-06T12:09:25;100264.22;;;23.95;23.74
5522;BME280;2783;48.730;8.006;2023-04-06T12:11:50;100264.25;;;23.84;25.22
5522;BME280;2783;48.730;8.006;2023-04-06T12:14:18;100262.66;;;24.24;26.81
5522;BME280;2783;48.730;8.006;2023-04-06T12:16:44;100272.16;;;23.76;24.78
5522;BME280;2783;48.730;8.006;2023-04-06T12:19:09;100254.88;;;23.77;24.90
5522;BME280;2783;48.730;8.006;2023-04-06T12:21:35;100256.84;;;23.75;26.13
5522;BME280;2783;48.730;8.006;2023-04-06T12:24:02;100251.41;;;23.75;27.01
5522;BME280;2783;48.730;8.006;2023-04-06T12:26:27;100256.03;;;23.63;26.90
5522;BME280;2783;48.730;8.006;2023-04-06T12:28:53;100255.13;;;22.85;24.38
5522;BME280;2783;48.730;8.006;2023-04-06T12:31:18;100255.50;;;21.64;26.13
5522;BME280;2783;48.730;8.006;2023-04-06T12:33:48;100259.63;;;21.09;26.70
5522;BME280;2783;48.730;8.006;2023-04-06T12:36:14;100250.91;;;21.41;26.88
5522;BME280;2783;48.730;8.006;2023-04-06T12:38:40;100249.06;;;21.78;28.08
5522;BME280;2783;48.730;8.006;2023-04-06T12:41:06;100246.25;;;21.67;27.01
5522;BME280;2783;48.730;8.006;2023-04-06T12:43:31;100247.44;;;21.75;27.72
5522;BME280;2783;48.730;8.006;2023-04-06T12:45:56;100241.69;;;21.80;26.51
5522;BME280;2783;48.730;8.006;2023-04-06T12:48:22;100239.75;;;21.82;26.43
5522;BME280;2783;48.730;8.006;2023-04-06T12:51:08;100235.41;;;22.03;26.03
5522;BME280;2783;48.730;8.006;2023-04-06T12:53:33;100233.56;;;22.38;27.43
5522;BME280;2783;48.730;8.006;2023-04-06T12:55:59;100242.22;;;22.08;27.37
5522;BME280;2783;48.730;8.006;2023-04-06T12:58:25;100234.03;;;21.97;26.63
5522;BME280;2783;48.730;8.006;2023-04-06T13:00:54;100239.91;;;20.81;25.51
5522;BME280;2783;48.730;8.006;2023-04-06T13:03:21;100238.06;;;21.20;28.56
5522;BME280;2783;48.730;8.006;2023-04-06T13:05:47;100236.84;;;21.36;28.81
5522;BME280;2783;48.730;8.006;2023-04-06T13:08:13;100229.56;;;21.49;28.02
5522;BME280;2783;48.730;8.006;2023-04-06T13:10:42;100234.38;;;21.21;27.54
5522;BME280;2783;48.730;8.006;2023-04-06T13:13:08;100229.31;;;20.66;25.71
5522;BME280;2783;48.730;8.006;2023-04-06T13:15:33;100232.06;;;19.88;26.13